Observation data for Turkey on 06/15/2019      Previous  Date  Next       Current Mesonet Observations  Soil Data  Daily Summary Page  Observations in Plain Language
KTUR 150500Z 16019G24KT 28/17 A2977 RMK A01 T02780170  RH  053%=      5-min Rain = 0
KTUR 150505Z 16018KT 28/17 A2977 RMK A01 T02750170  RH  054%=      5-min Rain = 0
KTUR 150510Z 16018G23KT 27/17 A2977 RMK A01 T02740170  RH  054%=      5-min Rain = 0
KTUR 150515Z 17019KT 27/17 A2977 RMK A01 T02730170  RH  055%=      5-min Rain = 0
KTUR 150520Z 17019G24KT 27/17 A2977 RMK A01 T02710170  RH  055%=      5-min Rain = 0
KTUR 150525Z 17018KT 27/17 A2977 RMK A01 T02690171  RH  056%=      5-min Rain = 0
KTUR 150530Z 17018KT 27/17 A2977 RMK A01 T02670171  RH  057%=      5-min Rain = 0
KTUR 150535Z 16016G21KT 26/17 A2977 RMK A01 T02640171  RH  058%=      5-min Rain = 0
KTUR 150540Z 16017KT 26/17 A2977 RMK A01 T02630172  RH  059%=      5-min Rain = 0
KTUR 150545Z 16016KT 26/17 A2977 RMK A01 T02610172  RH  059%=      5-min Rain = 0
KTUR 150550Z 17018KT 26/17 A2977 RMK A01 T02590172  RH  060%=      5-min Rain = 0
KTUR 150555Z 17017KT 26/17 A2977 RMK A01 T02580172  RH  060%=      5-min Rain = 0
KTUR 150600Z 17018KT 26/17 A2976 RMK A01 T02560172  RH  061%=      5-min Rain = 0
KTUR 150605Z 16019KT 26/17 A2976 RMK A01 T02550172  RH  061%=      5-min Rain = 0
KTUR 150610Z 16018KT 25/17 A2976 RMK A01 T02530172  RH  062%=      5-min Rain = 0
KTUR 150615Z 16019G24KT 25/17 A2976 RMK A01 T02520172  RH  062%=      5-min Rain = 0
KTUR 150620Z 16018G23KT 25/17 A2976 RMK A01 T02520171  RH  063%=      5-min Rain = 0
KTUR 150625Z 16017G22KT 25/17 A2976 RMK A01 T02500172  RH  063%=      5-min Rain = 0
KTUR 150630Z 16016KT 25/17 A2976 RMK A01 T02490172  RH  064%=      5-min Rain = 0
KTUR 150635Z 16015KT 25/17 A2976 RMK A01 T02460172  RH  065%=      5-min Rain = 0
KTUR 150640Z 16016KT 25/17 A2977 RMK A01 T02460172  RH  065%=      5-min Rain = 0
KTUR 150645Z 16015KT 25/17 A2976 RMK A01 T02450172  RH  065%=      5-min Rain = 0
KTUR 150650Z 16015KT 25/17 A2977 RMK A01 T02450172  RH  066%=      5-min Rain = 0
KTUR 150655Z 16015KT 24/17 A2977 RMK A01 T02440172  RH  066%=      5-min Rain = 0
KTUR 150700Z 16014KT 24/17 A2977 RMK A01 T02430172  RH  066%=      5-min Rain = 0
KTUR 150705Z 16014KT 24/17 A2977 RMK A01 T02400172  RH  068%=      5-min Rain = 0
KTUR 150710Z 15014KT 24/17 A2977 RMK A01 T02380172  RH  068%=      5-min Rain = 0
KTUR 150715Z 16016KT 24/17 A2977 RMK A01 T02370172  RH  069%=      5-min Rain = 0
KTUR 150720Z 16016KT 24/17 A2976 RMK A01 T02360172  RH  069%=      5-min Rain = 0
KTUR 150725Z 16016KT 23/17 A2976 RMK A01 T02340172  RH  070%=      5-min Rain = 0
KTUR 150730Z 16016KT 23/17 A2976 RMK A01 T02320172  RH  071%=      5-min Rain = 0
KTUR 150735Z 16014KT 23/17 A2976 RMK A01 T02300173  RH  072%=      5-min Rain = 0
KTUR 150740Z 15014KT 23/17 A2975 RMK A01 T02280173  RH  073%=      5-min Rain = 0
KTUR 150745Z 16014KT 23/17 A2975 RMK A01 T02300173  RH  072%=      5-min Rain = 0
KTUR 150750Z 17018G23KT 24/17 A2974 RMK A01 T02370174  RH  069%=      5-min Rain = 0
KTUR 150755Z 17020G25KT 25/17 A2974 RMK A01 T02450173  RH  066%=      5-min Rain = 0
KTUR 150800Z 18022KT 25/17 A2974 RMK A01 T02480173  RH  064%=      5-min Rain = 0
KTUR 150805Z 18021G27KT 25/17 A2974 RMK A01 T02490172  RH  064%=      5-min Rain = 0
KTUR 150810Z 18022G28KT 25/17 A2974 RMK A01 T02500171  RH  063%=      5-min Rain = 0
KTUR 150815Z 18021KT 25/17 A2973 RMK A01 T02490170  RH  063%=      5-min Rain = 0
KTUR 150820Z 18023G28KT 25/17 A2973 RMK A01 T02510169  RH  062%=      5-min Rain = 0
KTUR 150825Z 18021G26KT 25/17 A2973 RMK A01 T02500168  RH  062%=      5-min Rain = 0
KTUR 150830Z 18020G27KT 25/17 A2973 RMK A01 T02490167  RH  062%=      5-min Rain = 0
KTUR 150835Z 18020KT 25/17 A2973 RMK A01 T02480167  RH  062%=      5-min Rain = 0
KTUR 150840Z 18019KT 25/17 A2973 RMK A01 T02480166  RH  062%=      5-min Rain = 0
KTUR 150845Z 18019KT 25/17 A2973 RMK A01 T02470165  RH  062%=      5-min Rain = 0
KTUR 150850Z 19017G22KT 25/17 A2973 RMK A01 T02470165  RH  062%=      5-min Rain = 0
KTUR 150855Z 19016KT 25/16 A2973 RMK A01 T02450164  RH  062%=      5-min Rain = 0
KTUR 150900Z 19016KT 24/16 A2973 RMK A01 T02440163  RH  062%=      5-min Rain = 0
KTUR 150905Z 19018G24KT 25/16 A2973 RMK A01 T02460162  RH  061%=      5-min Rain = 0
KTUR 150910Z 19018G25KT 25/16 A2973 RMK A01 T02470161  RH  060%=      5-min Rain = 0
KTUR 150915Z 19019G25KT 25/16 A2972 RMK A01 T02470160  RH  060%=      5-min Rain = 0
KTUR 150920Z 19018KT 25/16 A2973 RMK A01 T02470159  RH  060%=      5-min Rain = 0
KTUR 150925Z 19020KT 25/16 A2972 RMK A01 T02480158  RH  058%=      5-min Rain = 0
KTUR 150930Z 19021G27KT 25/16 A2973 RMK A01 T02490157  RH  058%=      5-min Rain = 0
KTUR 150935Z 19018G24KT 25/16 A2973 RMK A01 T02480156  RH  058%=      5-min Rain = 0
KTUR 150940Z 18017G22KT 25/16 A2973 RMK A01 T02470155  RH  058%=      5-min Rain = 0
KTUR 150945Z 19017G22KT 25/15 A2973 RMK A01 T02460154  RH  058%=      5-min Rain = 0
KTUR 150950Z 19016KT 25/15 A2973 RMK A01 T02450154  RH  058%=      5-min Rain = 0
KTUR 150955Z 19014KT 24/15 A2973 RMK A01 T02440153  RH  058%=      5-min Rain = 0
KTUR 151000Z 19014KT 24/15 A2973 RMK A01 T02430152  RH  058%=      5-min Rain = 0
KTUR 151005Z 19013G18KT 24/15 A2973 RMK A01 T02430152  RH  058%=      5-min Rain = 0
KTUR 151010Z 19013KT 24/15 A2973 RMK A01 T02410151  RH  059%=      5-min Rain = 0
KTUR 151015Z 19011KT 24/15 A2973 RMK A01 T02400151  RH  059%=      5-min Rain = 0
KTUR 151020Z 19011KT 24/15 A2973 RMK A01 T02390151  RH  059%=      5-min Rain = 0
KTUR 151025Z 19013G18KT 24/15 A2973 RMK A01 T02400151  RH  059%=      5-min Rain = 0
KTUR 151030Z 19014G21KT 24/15 A2973 RMK A01 T02410150  RH  058%=      5-min Rain = 0
KTUR 151035Z 19015KT 24/15 A2973 RMK A01 T02420150  RH  058%=      5-min Rain = 0
KTUR 151040Z 19011KT 24/15 A2974 RMK A01 T02390150  RH  059%=      5-min Rain = 0
KTUR 151045Z 19012KT 24/15 A2973 RMK A01 T02370150  RH  059%=      5-min Rain = 0
KTUR 151050Z 20009KT 24/15 A2974 RMK A01 T02360150  RH  060%=      5-min Rain = 0
KTUR 151055Z 19009G14KT 23/15 A2973 RMK A01 T02340150  RH  060%=      5-min Rain = 0
KTUR 151100Z 21012G18KT 23/15 A2974 RMK A01 T02340150  RH  060%=      5-min Rain = 0
KTUR 151105Z 20015G22KT 24/15 A2973 RMK A01 T02360150  RH  060%=      5-min Rain = 0
KTUR 151110Z 21016G21KT 24/15 A2973 RMK A01 T02370150  RH  060%=      5-min Rain = 0
KTUR 151115Z 21015G21KT 24/15 A2973 RMK A01 T02350150  RH  060%=      5-min Rain = 0
KTUR 151120Z 21015G22KT 23/15 A2973 RMK A01 T02330151  RH  061%=      5-min Rain = 0
KTUR 151125Z 20017G22KT 23/15 A2973 RMK A01 T02320151  RH  062%=      5-min Rain = 0
KTUR 151130Z 21015G20KT 23/15 A2973 RMK A01 T02300150  RH  062%=      5-min Rain = 0
KTUR 151135Z 21018KT 23/15 A2973 RMK A01 T02320150  RH  061%=      5-min Rain = 0
KTUR 151140Z 21018KT 23/15 A2973 RMK A01 T02320151  RH  061%=      5-min Rain = 0
KTUR 151145Z 21017G22KT 23/15 A2973 RMK A01 T02320151  RH  061%=      5-min Rain = 0
KTUR 151150Z 21017G24KT 23/15 A2973 RMK A01 T02310150  RH  062%=      5-min Rain = 0
KTUR 151155Z 21016G23KT 23/15 A2973 RMK A01 T02320151  RH  062%=      5-min Rain = 0
KTUR 151200Z 21016KT 23/15 A2973 RMK A01 T02330152  RH  062%=      5-min Rain = 0
KTUR 151205Z 21012KT 23/15 A2973 RMK A01 T02320153  RH  062%=      5-min Rain = 0
KTUR 151210Z 21009KT 23/15 A2974 RMK A01 T02320154  RH  063%=      5-min Rain = 0
KTUR 151215Z 21007KT 23/16 A2974 RMK A01 T02320155  RH  063%=      5-min Rain = 0
KTUR 151220Z 21008KT 23/16 A2974 RMK A01 T02320156  RH  064%=      5-min Rain = 0
KTUR 151225Z 20009G15KT 23/16 A2974 RMK A01 T02340156  RH  063%=      5-min Rain = 0
KTUR 151230Z 18007KT 23/16 A2974 RMK A01 T02340157  RH  063%=      5-min Rain = 0
KTUR 151235Z 18006KT 24/16 A2974 RMK A01 T02350157  RH  063%=      5-min Rain = 0
KTUR 151240Z 18009KT 24/16 A2974 RMK A01 T02380157  RH  062%=      5-min Rain = 0
KTUR 151245Z 18008KT 24/16 A2975 RMK A01 T02420158  RH  061%=      5-min Rain = 0
KTUR 151250Z 15006KT 24/16 A2975 RMK A01 T02430159  RH  061%=      5-min Rain = 0
KTUR 151255Z 14005KT 24/16 A2976 RMK A01 T02440159  RH  060%=      5-min Rain = 0
KTUR 151300Z 12005KT 25/16 A2976 RMK A01 T02470158  RH  059%=      5-min Rain = 0
KTUR 151305Z 13005KT 25/16 A2976 RMK A01 T02500158  RH  058%=      5-min Rain = 0
KTUR 151310Z 17003KT 25/16 A2977 RMK A01 T02520158  RH  057%=      5-min Rain = 0
KTUR 151315Z 26002KT 25/16 A2978 RMK A01 T02540158  RH  057%=      5-min Rain = 0
KTUR 151320Z 27007KT 25/16 A2978 RMK A01 T02530161  RH  058%=      5-min Rain = 0
KTUR 151325Z 22014G19KT 26/16 A2976 RMK A01 T02570156  RH  055%=      5-min Rain = 0
KTUR 151330Z 21016KT 26/16 A2976 RMK A01 T02580156  RH  054%=      5-min Rain = 0
KTUR 151335Z 21010G16KT 26/16 A2977 RMK A01 T02590155  RH  054%=      5-min Rain = 0
KTUR 151340Z 25005KT 26/15 A2978 RMK A01 T02620153  RH  052%=      5-min Rain = 0
KTUR 151345Z 33004KT 27/15 A2979 RMK A01 T02670154  RH  051%=      5-min Rain = 0
KTUR 151350Z 21008G14KT 27/15 A2978 RMK A01 T02670149  RH  049%=      5-min Rain = 0
KTUR 151355Z 22016KT 27/15 A2976 RMK A01 T02650148  RH  050%=      5-min Rain = 0
KTUR 151400Z 23011KT 27/15 A2977 RMK A01 T02660147  RH  049%=      5-min Rain = 0
KTUR 151405Z 25010KT 27/14 A2978 RMK A01 T02670144  RH  048%=      5-min Rain = 0
KTUR 151410Z 24009KT 27/14 A2978 RMK A01 T02670141  RH  047%=      5-min Rain = 0
KTUR 151415Z 22010KT 27/14 A2978 RMK A01 T02670139  RH  046%=      5-min Rain = 0
KTUR 151420Z 23011KT 27/14 A2978 RMK A01 T02680138  RH  046%=      5-min Rain = 0
KTUR 151425Z 22012KT 27/14 A2977 RMK A01 T02670141  RH  047%=      5-min Rain = 0
KTUR 151430Z 22008G15KT 27/14 A2978 RMK A01 T02690142  RH  047%=      5-min Rain = 0
KTUR 151435Z 27006KT 27/13 A2978 RMK A01 T02690134  RH  044%=      5-min Rain = 0
KTUR 151440Z 23009KT 27/14 A2977 RMK A01 T02700137  RH  045%=      5-min Rain = 0
KTUR 151445Z 23009KT 27/13 A2977 RMK A01 T02700134  RH  044%=      5-min Rain = 0
KTUR 151450Z 25006KT 27/13 A2978 RMK A01 T02720133  RH  043%=      5-min Rain = 0
KTUR 151455Z 23007G12KT 27/14 A2977 RMK A01 T02730135  RH  044%=      5-min Rain = 0
KTUR 151500Z 23008KT 27/13 A2977 RMK A01 T02730131  RH  042%=      5-min Rain = 0
KTUR 151505Z 24005KT 27/13 A2978 RMK A01 T02730128  RH  041%=      5-min Rain = 0
KTUR 151510Z 24007KT 28/14 A2977 RMK A01 T02750135  RH  043%=      5-min Rain = 0
KTUR 151515Z 23008G13KT 28/13 A2977 RMK A01 T02760132  RH  042%=      5-min Rain = 0
KTUR 151520Z 24007G13KT 28/13 A2978 RMK A01 T02780130  RH  041%=      5-min Rain = 0
KTUR 151525Z 22009KT 28/13 A2977 RMK A01 T02780127  RH  040%=      5-min Rain = 0
KTUR 151530Z 26007KT 28/12 A2977 RMK A01 T02800124  RH  039%=      5-min Rain = 0
KTUR 151535Z 29006KT 28/12 A2978 RMK A01 T02820120  RH  037%=      5-min Rain = 0
KTUR 151540Z 24007KT 28/12 A2977 RMK A01 T02810124  RH  039%=      5-min Rain = 0
KTUR 151545Z 25007KT 28/13 A2977 RMK A01 T02830126  RH  039%=      5-min Rain = 0
KTUR 151550Z 25007KT 29/13 A2978 RMK A01 T02860131  RH  039%=      5-min Rain = 0
KTUR 151555Z 25006KT 28/13 A2978 RMK A01 T02840129  RH  039%=      5-min Rain = 0
KTUR 151600Z 27008KT 29/12 A2978 RMK A01 T02870123  RH  037%=      5-min Rain = 0
KTUR 151605Z 26006KT 29/12 A2978 RMK A01 T02860119  RH  036%=      5-min Rain = 0
KTUR 151610Z 26006KT 29/12 A2978 RMK A01 T02860117  RH  036%=      5-min Rain = 0
KTUR 151615Z 27005KT 29/12 A2978 RMK A01 T02870122  RH  037%=      5-min Rain = 0
KTUR 151620Z 25006KT 29/12 A2978 RMK A01 T02890124  RH  037%=      5-min Rain = 0
KTUR 151625Z 30007KT 29/12 A2979 RMK A01 T02910121  RH  036%=      5-min Rain = 0
KTUR 151630Z 30007KT 29/13 A2979 RMK A01 T02910127  RH  037%=      5-min Rain = 0
KTUR 151635Z 28006KT 29/13 A2979 RMK A01 T02920129  RH  037%=      5-min Rain = 0
KTUR 151640Z 29007G12KT 30/13 A2979 RMK A01 T02950132  RH  038%=      5-min Rain = 0
KTUR 151645Z 31010KT 29/14 A2979 RMK A01 T02940135  RH  039%=      5-min Rain = 0
KTUR 151650Z 31009G14KT 29/13 A2979 RMK A01 T02910134  RH  039%=      5-min Rain = 0
KTUR 151655Z 30010G15KT 29/14 A2979 RMK A01 T02920136  RH  039%=      5-min Rain = 0
KTUR 151700Z 30009G14KT 29/14 A298 RMK A01 T02940136  RH  039%=      5-min Rain = 0
KTUR 151705Z 32010KT 29/13 A2979 RMK A01 T02930134  RH  038%=      5-min Rain = 0
KTUR 151710Z 32007KT 29/13 A298 RMK A01 T02900132  RH  039%=      5-min Rain = 0
KTUR 151715Z 32008KT 29/13 A2979 RMK A01 T02930133  RH  038%=      5-min Rain = 0
KTUR 151720Z 31008G13KT 29/14 A2979 RMK A01 T02940135  RH  038%=      5-min Rain = 0
KTUR 151725Z 32008KT 30/14 A2979 RMK A01 T02960139  RH  039%=      5-min Rain = 0
KTUR 151730Z 31009G14KT 29/14 A2979 RMK A01 T02940139  RH  039%=      5-min Rain = 0
KTUR 151735Z 30008KT 29/14 A2979 RMK A01 T02940142  RH  040%=      5-min Rain = 0
KTUR 151740Z 32007G12KT 29/15 A2979 RMK A01 T02940150  RH  042%=      5-min Rain = 0
KTUR 151745Z 31008KT 30/16 A2979 RMK A01 T02980158  RH  044%=      5-min Rain = 0
KTUR 151750Z 32008G15KT 30/16 A2979 RMK A01 T02960157  RH  044%=      5-min Rain = 0
KTUR 151755Z 32008G13KT 30/16 A2979 RMK A01 T02970159  RH  044%=      5-min Rain = 0
KTUR 151800Z 31006G12KT 30/16 A2979 RMK A01 T02970160  RH  044%=      5-min Rain = 0
KTUR 151805Z 31008KT 30/16 A2979 RMK A01 T02970159  RH  044%=      5-min Rain = 0
KTUR 151810Z 33007KT 30/16 A2979 RMK A01 T03020160  RH  043%=      5-min Rain = 0
KTUR 151815Z 34006KT 30/16 A2979 RMK A01 T03030160  RH  043%=      5-min Rain = 0
KTUR 151820Z 28006KT 31/16 A2979 RMK A01 T03060162  RH  043%=      5-min Rain = 0
KTUR 151825Z 30006KT 31/16 A2979 RMK A01 T03050160  RH  043%=      5-min Rain = 0
KTUR 151830Z 29005G11KT 30/16 A2979 RMK A01 T03040157  RH  042%=      5-min Rain = 0
KTUR 151835Z 25007KT 30/16 A298 RMK A01 T03030155  RH  042%=      5-min Rain = 0
KTUR 151840Z 23003KT 30/16 A298 RMK A01 T03030158  RH  042%=      5-min Rain = 0
KTUR 151845Z 31005KT 31/17 A298 RMK A01 T03080165  RH  043%=      5-min Rain = 0
KTUR 151850Z 33006KT 31/17 A2979 RMK A01 T03080165  RH  043%=      5-min Rain = 0
KTUR 151855Z 29006KT 31/17 A298 RMK A01 T03080168  RH  044%=      5-min Rain = 0
KTUR 151900Z 24006KT 31/17 A2979 RMK A01 T03090172  RH  045%=      5-min Rain = 0
KTUR 151905Z 25007KT 31/17 A2979 RMK A01 T03110173  RH  045%=      5-min Rain = 0
KTUR 151910Z 28004KT 31/17 A2979 RMK A01 T03100173  RH  045%=      5-min Rain = 0
KTUR 151915Z 31006KT 31/18 A2979 RMK A01 T03130178  RH  046%=      5-min Rain = 0
KTUR 151920Z 30007KT 31/18 A2979 RMK A01 T03130177  RH  045%=      5-min Rain = 0
KTUR 151925Z 32007KT 31/18 A2979 RMK A01 T03140176  RH  045%=      5-min Rain = 0
KTUR 151930Z 32009KT 32/17 A2978 RMK A01 T03150172  RH  044%=      5-min Rain = 0
KTUR 151935Z 33007KT 31/17 A2979 RMK A01 T03130169  RH  043%=      5-min Rain = 0
KTUR 151940Z 30006KT 31/17 A2979 RMK A01 T03120170  RH  043%=      5-min Rain = 0
KTUR 151945Z 32006G12KT 31/17 A2979 RMK A01 T03130169  RH  043%=      5-min Rain = 0
KTUR 151950Z 33007KT 31/17 A2978 RMK A01 T03100167  RH  043%=      5-min Rain = 0
KTUR 151955Z 32008KT 31/17 A2978 RMK A01 T03110167  RH  043%=      5-min Rain = 0
KTUR 152000Z 32008KT 31/17 A2978 RMK A01 T03100167  RH  043%=      5-min Rain = 0
KTUR 152005Z 33008KT 31/16 A2978 RMK A01 T03110164  RH  042%=      5-min Rain = 0
KTUR 152010Z 33009KT 32/17 A2978 RMK A01 T03150167  RH  042%=      5-min Rain = 0
KTUR 152015Z 32008KT 31/17 A2978 RMK A01 T03140167  RH  042%=      5-min Rain = 0
KTUR 152020Z 32008KT 31/16 A2978 RMK A01 T03140163  RH  041%=      5-min Rain = 0
KTUR 152025Z 33008KT 32/16 A2978 RMK A01 T03160162  RH  040%=      5-min Rain = 0
KTUR 152030Z 33007KT 32/16 A2978 RMK A01 T03200162  RH  040%=      5-min Rain = 0
KTUR 152035Z 33005KT 32/16 A2978 RMK A01 T03230163  RH  039%=      5-min Rain = 0
KTUR 152040Z 34008KT 32/16 A2978 RMK A01 T03220164  RH  040%=      5-min Rain = 0
KTUR 152045Z 34004KT 32/16 A2978 RMK A01 T03200163  RH  040%=      5-min Rain = 0
KTUR 152050Z 36006KT 32/17 A2978 RMK A01 T03230166  RH  040%=      5-min Rain = 0
KTUR 152055Z 02005G13KT 32/17 A2978 RMK A01 T03240165  RH  039%=      5-min Rain = 0
KTUR 152100Z 34009KT 33/17 A2978 RMK A01 T03270169  RH  040%=      5-min Rain = 0
KTUR 152105Z 34008KT 33/17 A2978 RMK A01 T03260167  RH  039%=      5-min Rain = 0
KTUR 152110Z 33008G14KT 33/17 A2978 RMK A01 T03260167  RH  040%=      5-min Rain = 0
KTUR 152115Z 33006KT 33/17 A2978 RMK A01 T03310172  RH  040%=      5-min Rain = 0
KTUR 152120Z 00006KT 33/17 A2978 RMK A01 T03330169  RH  038%=      5-min Rain = 0
KTUR 152125Z 35009G14KT 33/17 A2977 RMK A01 T03300167  RH  039%=      5-min Rain = 0
KTUR 152130Z 34008KT 33/16 A2977 RMK A01 T03280164  RH  038%=      5-min Rain = 0
KTUR 152135Z 35003KT 33/16 A2976 RMK A01 T03290161  RH  037%=      5-min Rain = 0
KTUR 152140Z 35007KT 33/17 A2976 RMK A01 T03320168  RH  039%=      5-min Rain = 0
KTUR 152145Z 03008KT 33/17 A2976 RMK A01 T03310170  RH  039%=      5-min Rain = 0
KTUR 152150Z 01008KT 33/17 A2975 RMK A01 T03320171  RH  039%=      5-min Rain = 0
KTUR 152155Z 36009G14KT 33/17 A2975 RMK A01 T03290169  RH  039%=      5-min Rain = 0
KTUR 152200Z 03008KT 32/17 A2976 RMK A01 T03230170  RH  041%=      5-min Rain = 0
KTUR 152205Z 03008KT 32/17 A2976 RMK A01 T03210171  RH  042%=      5-min Rain = 0
KTUR 152210Z 03008KT 32/17 A2976 RMK A01 T03190170  RH  042%=      5-min Rain = 0
KTUR 152215Z 03006KT 32/17 A2976 RMK A01 T03190169  RH  042%=      5-min Rain = 0
KTUR 152220Z 03007KT 32/17 A2976 RMK A01 T03190168  RH  041%=      5-min Rain = 0
KTUR 152225Z 03007KT 32/17 A2976 RMK A01 T03190169  RH  042%=      5-min Rain = 0
KTUR 152230Z 02007KT 32/17 A2976 RMK A01 T03180167  RH  041%=      5-min Rain = 0
KTUR 152235Z 01006KT 32/17 A2976 RMK A01 T03160165  RH  041%=      5-min Rain = 0
KTUR 152240Z 01005KT 32/17 A2976 RMK A01 T03150166  RH  042%=      5-min Rain = 0
KTUR 152245Z 01005KT 31/16 A2975 RMK A01 T03140162  RH  041%=      5-min Rain = 0
KTUR 152250Z 01009KT 31/17 A2975 RMK A01 T03120165  RH  042%=      5-min Rain = 0
KTUR 152255Z 00009KT 31/17 A2975 RMK A01 T03090168  RH  044%=      5-min Rain = 0
KTUR 152300Z 35009KT 31/17 A2975 RMK A01 T03050169  RH  045%=      5-min Rain = 0
KTUR 152305Z 35009KT 30/17 A2976 RMK A01 T03040168  RH  045%=      5-min Rain = 0
KTUR 152310Z 35008KT 30/17 A2976 RMK A01 T03010170  RH  046%=      5-min Rain = 0
KTUR 152315Z 34008KT 30/17 A2977 RMK A01 T02990170  RH  047%=      5-min Rain = 0
KTUR 152320Z 34008KT 30/17 A2976 RMK A01 T02960170  RH  048%=      5-min Rain = 0
KTUR 152325Z 33008KT 29/17 A2976 RMK A01 T02920172  RH  050%=      5-min Rain = 0
KTUR 152330Z 32010KT 29/17 A2975 RMK A01 T02880174  RH  051%=      5-min Rain = 0
KTUR 152335Z 32010KT 29/18 A2976 RMK A01 T02880175  RH  052%=      5-min Rain = 0
KTUR 152340Z 32011KT 29/18 A2976 RMK A01 T02890175  RH  051%=      5-min Rain = 0
KTUR 152345Z 32010KT 29/18 A2978 RMK A01 T02880179  RH  053%=      5-min Rain = 0
KTUR 152350Z 29009G14KT 29/18 A298 RMK A01 T02860180  RH  054%=      5-min Rain = 0
KTUR 152355Z 29011KT 28/18 A2983 RMK A01 T02810184  RH  057%=      5-min Rain = 0
KTUR 160000Z 28019G27KT 28/16 A2984 RMK A01 T02810163  RH  050%=      5-min Rain = 0
KTUR 160005Z 29025G34KT 28/14 A2985 RMK A01 T02790140  RH  043%=      5-min Rain = 0
KTUR 160010Z 29025G32KT 27/14 A2985 RMK A01 T02660139  RH  047%=      5-min Rain = 0
KTUR 160015Z 30024G29KT 25/14 A2986 RMK A01 T02500135  RH  050%=      5-min Rain = 0
KTUR 160020Z 29021G28KT 25/13 A2986 RMK A01 T02460133  RH  050%=      5-min Rain = 0
KTUR 160025Z 29023G34KT 24/14 A2987 RMK A01 T02380142  RH  056%=      5-min Rain = 0
KTUR 160030Z 30022G31KT 23/14 A2988 RMK A01 T02260137  RH  058%=      5-min Rain = 0
KTUR 160035Z 32019G28KT 22/14 A2986 RMK A01 T02210137  RH  060%=      5-min Rain = 0
KTUR 160040Z 33025KT 22/13 A2982 RMK A01 T02170132  RH  059%=      5-min Rain = 0
KTUR 160045Z 36023G29KT 23/12 A298 RMK A01 T02270122  RH  053%=      5-min Rain = 0
KTUR 160050Z 00019G29KT 24/11 A298 RMK A01 T02400114  RH  046%=      5-min Rain = 0
KTUR 160055Z 35017G24KT 24/12 A2981 RMK A01 T02370119  RH  048%=      5-min Rain = 0
KTUR 160100Z 34020G27KT 24/11 A2981 RMK A01 T02420113  RH  045%=      5-min Rain = 0
KTUR 160105Z 32021G27KT 23/13 A2982 RMK A01 T02320126  RH  052%=      5-min Rain = 0
KTUR 160110Z 34018KT 22/13 A2981 RMK A01 T02240125  RH  055%=      5-min Rain = 0
KTUR 160115Z 36014G19KT 23/12 A2981 RMK A01 T02290122  RH  052%=      5-min Rain = 0
KTUR 160120Z 00010KT 23/12 A2981 RMK A01 T02280124  RH  053%=      5-min Rain = 0
KTUR 160125Z 08010KT 22/13 A2981 RMK A01 T02240134  RH  058%=      5-min Rain = 0
KTUR 160130Z 06013KT 21/14 A2979 RMK A01 T02100142  RH  066%=      5-min Rain = 0
KTUR 160135Z 01013G18KT 21/14 A2978 RMK A01 T02100141  RH  066%=      5-min Rain = 0
KTUR 160140Z 32016G21KT 21/14 A2979 RMK A01 T02090142  RH  067%=      5-min Rain = 0
KTUR 160145Z 33016G22KT 22/13 A2981 RMK A01 T02210128  RH  057%=      5-min Rain = 0
KTUR 160150Z 32014G20KT 22/13 A2983 RMK A01 T02210129  RH  057%=      5-min Rain = 0
KTUR 160155Z 32014G19KT 22/13 A2983 RMK A01 T02210127  RH  056%=      5-min Rain = 0
KTUR 160200Z 34013KT 22/13 A2982 RMK A01 T02200126  RH  056%=      5-min Rain = 0
KTUR 160205Z 35012KT 23/12 A2982 RMK A01 T02260118  RH  051%=      5-min Rain = 0
KTUR 160210Z 35009KT 23/12 A2982 RMK A01 T02290116  RH  050%=      5-min Rain = 0
KTUR 160215Z 01008KT 23/12 A2982 RMK A01 T02280119  RH  051%=      5-min Rain = 0
KTUR 160220Z 03007KT 23/12 A2981 RMK A01 T02260119  RH  052%=      5-min Rain = 0
KTUR 160225Z 35007KT 23/12 A298 RMK A01 T02250120  RH  052%=      5-min Rain = 0
KTUR 160230Z 34007KT 22/12 A298 RMK A01 T02210123  RH  055%=      5-min Rain = 0
KTUR 160235Z 34008KT 22/13 A298 RMK A01 T02160126  RH  058%=      5-min Rain = 0
KTUR 160240Z 35008KT 21/13 A298 RMK A01 T02140126  RH  058%=      5-min Rain = 0
KTUR 160245Z 36008KT 22/12 A2979 RMK A01 T02170123  RH  056%=      5-min Rain = 0
KTUR 160250Z 00011KT 22/12 A2978 RMK A01 T02210121  RH  054%=      5-min Rain = 0
KTUR 160255Z 36014KT 22/12 A2978 RMK A01 T02240119  RH  052%=      5-min Rain = 0
KTUR 160300Z 00014KT 22/12 A2978 RMK A01 T02230122  RH  054%=      5-min Rain = 0
KTUR 160305Z 01012KT 22/12 A2978 RMK A01 T02210124  RH  055%=      5-min Rain = 0
KTUR 160310Z 02011KT 22/12 A2978 RMK A01 T02210122  RH  054%=      5-min Rain = 0
KTUR 160315Z 03010KT 22/12 A298 RMK A01 T02230119  RH  053%=      5-min Rain = 0
KTUR 160320Z 02010KT 22/12 A2981 RMK A01 T02240119  RH  052%=      5-min Rain = 0
KTUR 160325Z 02009KT 22/12 A2982 RMK A01 T02210121  RH  054%=      5-min Rain = 0
KTUR 160330Z 02008KT 22/12 A2982 RMK A01 T02180123  RH  056%=      5-min Rain = 0
KTUR 160335Z 01008KT 22/12 A2982 RMK A01 T02160124  RH  057%=      5-min Rain = 0
KTUR 160340Z 01008KT 22/12 A2983 RMK A01 T02150124  RH  057%=      5-min Rain = 0
KTUR 160345Z 03007KT 21/12 A2984 RMK A01 T02140124  RH  058%=      5-min Rain = 0
KTUR 160350Z 04007KT 22/12 A2984 RMK A01 T02160123  RH  057%=      5-min Rain = 0
KTUR 160355Z 04007KT 22/12 A2985 RMK A01 T02160123  RH  056%=      5-min Rain = 0
KTUR 160400Z 06006KT 22/12 A2984 RMK A01 T02160123  RH  056%=      5-min Rain = 0
KTUR 160405Z 12005KT 21/13 A2984 RMK A01 T02120130  RH  061%=      5-min Rain = 0
KTUR 160410Z 11005KT 21/14 A2984 RMK A01 T02080136  RH  065%=      5-min Rain = 0
KTUR 160415Z 13004KT 20/14 A2984 RMK A01 T02040143  RH  069%=      5-min Rain = 0
KTUR 160420Z 17002KT 20/14 A2983 RMK A01 T02000142  RH  071%=      5-min Rain = 0
KTUR 160425Z 16002KT 20/14 A2982 RMK A01 T02010139  RH  069%=      5-min Rain = 0
KTUR 160430Z 18003KT 20/14 A2984 RMK A01 T02000143  RH  071%=      5-min Rain = 0
KTUR 160435Z 20003KT 20/14 A2985 RMK A01 T01980144  RH  073%=      5-min Rain = 0
KTUR 160440Z 18002KT 20/14 A2985 RMK A01 T01980141  RH  071%=      5-min Rain = 0
KTUR 160445Z 22003KT 20/14 A2986 RMK A01 T01980142  RH  072%=      5-min Rain = 0
KTUR 160450Z 23003KT 20/14 A2986 RMK A01 T01990140  RH  070%=      5-min Rain = 0
KTUR 160455Z 27003KT 20/14 A2987 RMK A01 T02000140  RH  070%=      5-min Rain = 0

Page generated in 0.009 seconds.